sensor_id;sensor_type;location;lat;lon;timestamp;pressure;altitude;pressure_sealevel;temperature;humidity
57610;BME280;43435;46.186;9.024;2023-07-31T06:02:33;98527.94;;;21.52;52.68
57610;BME280;43435;46.186;9.024;2023-07-31T06:05:01;98529.03;;;21.41;53.25
57610;BME280;43435;46.186;9.024;2023-07-31T06:07:26;98535.25;;;21.52;53.42
57610;BME280;43435;46.186;9.024;2023-07-31T06:09:51;98529.00;;;21.46;53.23
57610;BME280;43435;46.186;9.024;2023-07-31T06:12:17;98527.66;;;21.49;53.53
57610;BME280;43435;46.186;9.024;2023-07-31T06:14:43;98528.47;;;21.54;53.54
57610;BME280;43435;46.186;9.024;2023-07-31T06:17:09;98525.19;;;21.57;54.80
57610;BME280;43435;46.186;9.024;2023-07-31T06:19:34;98535.50;;;21.65;53.58
57610;BME280;43435;46.186;9.024;2023-07-31T07:17:26;98561.72;;;22.06;49.71
57610;BME280;43435;46.186;9.024;2023-07-31T07:19:52;98559.03;;;21.90;51.14
57610;BME280;43435;46.186;9.024;2023-07-31T07:22:18;98553.34;;;21.87;52.35
57610;BME280;43435;46.186;9.024;2023-07-31T07:24:43;98562.59;;;21.81;51.92
57610;BME280;43435;46.186;9.024;2023-07-31T07:27:08;98553.88;;;21.89;51.55
57610;BME280;43435;46.186;9.024;2023-07-31T07:29:33;98547.31;;;22.05;51.00
57610;BME280;43435;46.186;9.024;2023-07-31T07:31:59;98547.31;;;22.10;49.15
57610;BME280;43435;46.186;9.024;2023-07-31T07:34:25;98539.97;;;22.16;48.94
57610;BME280;43435;46.186;9.024;2023-07-31T07:36:51;98538.56;;;22.24;47.84
57610;BME280;43435;46.186;9.024;2023-07-31T07:39:16;98532.00;;;22.35;47.58
57610;BME280;43435;46.186;9.024;2023-07-31T07:41:41;98530.94;;;22.36;47.68
57610;BME280;43435;46.186;9.024;2023-07-31T07:44:07;98529.88;;;22.32;46.87
57610;BME280;43435;46.186;9.024;2023-07-31T07:46:32;98531.69;;;22.47;45.23
57610;BME280;43435;46.186;9.024;2023-07-31T07:48:58;98521.13;;;22.40;45.44
57610;BME280;43435;46.186;9.024;2023-07-31T07:51:23;98520.81;;;22.41;44.74
57610;BME280;43435;46.186;9.024;2023-07-31T07:53:48;98512.16;;;22.34;44.84
57610;BME280;43435;46.186;9.024;2023-07-31T07:56:13;98511.38;;;22.34;45.24
57610;BME280;43435;46.186;9.024;2023-07-31T07:58:38;98506.47;;;22.31;47.80
57610;BME280;43435;46.186;9.024;2023-07-31T08:01:04;98510.56;;;22.33;46.49
57610;BME280;43435;46.186;9.024;2023-07-31T08:03:29;98496.66;;;22.40;46.29
57610;BME280;43435;46.186;9.024;2023-07-31T08:05:57;98498.28;;;22.41;46.78
57610;BME280;43435;46.186;9.024;2023-07-31T08:08:23;98491.19;;;22.45;47.05
57610;BME280;43435;46.186;9.024;2023-07-31T08:10:48;98492.75;;;22.56;46.71
57610;BME280;43435;46.186;9.024;2023-07-31T08:13:13;98495.94;;;22.69;44.64
57610;BME280;43435;46.186;9.024;2023-07-31T08:15:40;98503.44;;;22.82;44.04
57610;BME280;43435;46.186;9.024;2023-07-31T08:18:05;98496.34;;;22.86;44.10
57610;BME280;43435;46.186;9.024;2023-07-31T08:20:31;98499.59;;;22.88;44.07
57610;BME280;43435;46.186;9.024;2023-07-31T08:22:56;98491.44;;;22.88;43.58
57610;BME280;43435;46.186;9.024;2023-07-31T08:25:21;98490.63;;;22.93;43.26
57610;BME280;43435;46.186;9.024;2023-07-31T08:27:46;98495.44;;;23.01;43.33
57610;BME280;43435;46.186;9.024;2023-07-31T08:30:11;98488.47;;;23.19;43.45
57610;BME280;43435;46.186;9.024;2023-07-31T08:32:37;98491.66;;;23.31;43.91
57610;BME280;43435;46.186;9.024;2023-07-31T08:35:02;98493.16;;;23.42;43.85
57610;BME280;43435;46.186;9.024;2023-07-31T08:37:27;98484.59;;;23.54;44.47
57610;BME280;43435;46.186;9.024;2023-07-31T08:39:53;98485.88;;;23.61;43.94
57610;BME280;43435;46.186;9.024;2023-07-31T08:42:19;98489.84;;;23.74;43.89
57610;BME280;43435;46.186;9.024;2023-07-31T08:44:44;98485.38;;;23.83;45.09
57610;BME280;43435;46.186;9.024;2023-07-31T08:47:11;98473.63;;;23.88;46.38
57610;BME280;43435;46.186;9.024;2023-07-31T08:49:37;98469.91;;;24.22;44.45
57610;BME280;43435;46.186;9.024;2023-07-31T08:52:03;98474.03;;;24.19;43.91
57610;BME280;43435;46.186;9.024;2023-07-31T08:54:29;98463.28;;;24.28;44.27
57610;BME280;43435;46.186;9.024;2023-07-31T08:56:56;98456.66;;;24.34;44.39
57610;BME280;43435;46.186;9.024;2023-07-31T08:59:22;98450.84;;;24.41;44.85
57610;BME280;43435;46.186;9.024;2023-07-31T09:01:50;98447.69;;;24.52;43.58
57610;BME280;43435;46.186;9.024;2023-07-31T09:04:18;98455.69;;;24.63;42.88
57610;BME280;43435;46.186;9.024;2023-07-31T09:06:44;98445.75;;;24.72;41.32
57610;BME280;43435;46.186;9.024;2023-07-31T09:09:10;98444.91;;;24.90;40.51
57610;BME280;43435;46.186;9.024;2023-07-31T09:11:37;98436.41;;;24.92;40.63
57610;BME280;43435;46.186;9.024;2023-07-31T09:14:02;98429.16;;;25.01;40.31
57610;BME280;43435;46.186;9.024;2023-07-31T09:16:33;98420.09;;;25.05;41.41
57610;BME280;43435;46.186;9.024;2023-07-31T09:18:58;98428.19;;;25.11;41.58
57610;BME280;43435;46.186;9.024;2023-07-31T09:21:26;98422.97;;;25.28;40.84
57610;BME280;43435;46.186;9.024;2023-07-31T09:23:52;98419.53;;;25.36;38.88
57610;BME280;43435;46.186;9.024;2023-07-31T09:29:18;98421.66;;;25.67;38.50
57610;BME280;43435;46.186;9.024;2023-07-31T09:31:43;98421.75;;;25.62;38.00
57610;BME280;43435;46.186;9.024;2023-07-31T09:34:10;98425.28;;;25.76;38.23
57610;BME280;43435;46.186;9.024;2023-07-31T09:36:40;98418.31;;;25.70;37.61
57610;BME280;43435;46.186;9.024;2023-07-31T09:39:05;98417.72;;;25.87;38.50
57610;BME280;43435;46.186;9.024;2023-07-31T09:41:31;98411.25;;;25.96;38.26
57610;BME280;43435;46.186;9.024;2023-07-31T09:43:56;98407.50;;;25.92;39.48
57610;BME280;43435;46.186;9.024;2023-07-31T09:46:21;98411.84;;;25.93;38.63
57610;BME280;43435;46.186;9.024;2023-07-31T09:48:47;98412.03;;;26.11;38.76
57610;BME280;43435;46.186;9.024;2023-07-31T09:51:12;98408.78;;;26.09;39.27
57610;BME280;43435;46.186;9.024;2023-07-31T09:53:37;98409.84;;;26.21;38.81
57610;BME280;43435;46.186;9.024;2023-07-31T09:56:02;98408.63;;;26.27;39.56
57610;BME280;43435;46.186;9.024;2023-07-31T09:58:28;98400.59;;;26.31;39.38
57610;BME280;43435;46.186;9.024;2023-07-31T10:00:54;98393.59;;;26.39;38.66
57610;BME280;43435;46.186;9.024;2023-07-31T10:03:20;98387.31;;;26.38;38.25
57610;BME280;43435;46.186;9.024;2023-07-31T10:05:46;98388.63;;;26.41;38.50
57610;BME280;43435;46.186;9.024;2023-07-31T10:08:14;98383.34;;;26.44;40.76
57610;BME280;43435;46.186;9.024;2023-07-31T10:10:41;98387.28;;;26.74;39.53
57610;BME280;43435;46.186;9.024;2023-07-31T10:13:06;98381.56;;;26.85;38.76
57610;BME280;43435;46.186;9.024;2023-07-31T10:15:32;98384.22;;;26.76;39.85
57610;BME280;43435;46.186;9.024;2023-07-31T10:17:57;98377.00;;;26.80;39.38
57610;BME280;43435;46.186;9.024;2023-07-31T10:20:23;98375.41;;;26.79;39.70
57610;BME280;43435;46.186;9.024;2023-07-31T10:22:49;98374.81;;;26.91;39.24
57610;BME280;43435;46.186;9.024;2023-07-31T10:25:16;98374.53;;;27.01;38.79
57610;BME280;43435;46.186;9.024;2023-07-31T10:27:42;98372.16;;;27.08;38.85
57610;BME280;43435;46.186;9.024;2023-07-31T10:30:17;98367.88;;;27.16;39.80
57610;BME280;43435;46.186;9.024;2023-07-31T10:32:43;98369.88;;;27.33;38.13
57610;BME280;43435;46.186;9.024;2023-07-31T10:35:09;98365.34;;;27.28;38.76
57610;BME280;43435;46.186;9.024;2023-07-31T10:37:38;98361.16;;;27.31;39.36
57610;BME280;43435;46.186;9.024;2023-07-31T10:40:05;98359.78;;;27.51;39.19
57610;BME280;43435;46.186;9.024;2023-07-31T10:42:35;98365.75;;;27.53;41.15
57610;BME280;43435;46.186;9.024;2023-07-31T10:45:02;98354.50;;;27.63;40.37
57610;BME280;43435;46.186;9.024;2023-07-31T10:47:28;98364.13;;;27.52;40.67
57610;BME280;43435;46.186;9.024;2023-07-31T10:50:12;98350.16;;;27.62;40.79
57610;BME280;43435;46.186;9.024;2023-07-31T10:52:37;98350.31;;;27.74;40.77
57610;BME280;43435;46.186;9.024;2023-07-31T10:55:15;98342.94;;;27.75;41.17
57610;BME280;43435;46.186;9.024;2023-07-31T10:57:44;98337.16;;;27.93;41.46
57610;BME280;43435;46.186;9.024;2023-07-31T11:03:07;98332.81;;;28.01;41.59
57610;BME280;43435;46.186;9.024;2023-07-31T11:05:50;98329.13;;;28.06;41.32
57610;BME280;43435;46.186;9.024;2023-07-31T11:08:23;98322.47;;;28.24;39.62
57610;BME280;43435;46.186;9.024;2023-07-31T11:10:50;98319.09;;;28.27;40.76
57610;BME280;43435;46.186;9.024;2023-07-31T11:13:15;98321.03;;;28.27;41.31
57610;BME280;43435;46.186;9.024;2023-07-31T11:15:40;98312.81;;;28.35;41.62
57610;BME280;43435;46.186;9.024;2023-07-31T11:18:05;98311.47;;;28.59;39.10
57610;BME280;43435;46.186;9.024;2023-07-31T11:20:33;98309.91;;;28.40;39.54
57610;BME280;43435;46.186;9.024;2023-07-31T11:22:59;98306.03;;;28.41;39.61
57610;BME280;43435;46.186;9.024;2023-07-31T11:25:25;98300.19;;;28.52;42.08
57610;BME280;43435;46.186;9.024;2023-07-31T11:27:50;98298.66;;;28.80;41.09
57610;BME280;43435;46.186;9.024;2023-07-31T11:30:18;98301.72;;;28.87;42.35
57610;BME280;43435;46.186;9.024;2023-07-31T11:32:44;98293.03;;;28.68;43.30
57610;BME280;43435;46.186;9.024;2023-07-31T11:35:12;98298.00;;;28.83;43.82
57610;BME280;43435;46.186;9.024;2023-07-31T11:37:40;98287.13;;;29.04;42.80
57610;BME280;43435;46.186;9.024;2023-07-31T11:40:06;98284.16;;;29.18;41.43
57610;BME280;43435;46.186;9.024;2023-07-31T11:42:32;98284.75;;;28.85;43.39
57610;BME280;43435;46.186;9.024;2023-07-31T11:44:57;98284.59;;;28.82;43.96
57610;BME280;43435;46.186;9.024;2023-07-31T11:47:22;98278.91;;;28.96;44.41
57610;BME280;43435;46.186;9.024;2023-07-31T11:49:47;98276.78;;;29.01;44.64
57610;BME280;43435;46.186;9.024;2023-07-31T11:52:14;98275.63;;;29.11;45.38
57610;BME280;43435;46.186;9.024;2023-07-31T11:54:40;98265.66;;;29.06;45.19
57610;BME280;43435;46.186;9.024;2023-07-31T11:57:05;98264.31;;;29.12;44.70
57610;BME280;43435;46.186;9.024;2023-07-31T11:59:31;98253.31;;;29.12;44.47
57610;BME280;43435;46.186;9.024;2023-07-31T12:01:57;98256.41;;;29.11;45.13
57610;BME280;43435;46.186;9.024;2023-07-31T12:04:23;98248.53;;;29.30;44.52
57610;BME280;43435;46.186;9.024;2023-07-31T12:06:48;98242.38;;;29.33;45.07
57610;BME280;43435;46.186;9.024;2023-07-31T12:09:15;98239.19;;;29.31;45.27
57610;BME280;43435;46.186;9.024;2023-07-31T12:11:44;98241.25;;;29.34;45.53
57610;BME280;43435;46.186;9.024;2023-07-31T12:14:19;98243.06;;;29.51;46.26
57610;BME280;43435;46.186;9.024;2023-07-31T12:16:44;98231.44;;;29.75;43.38
57610;BME280;43435;46.186;9.024;2023-07-31T12:19:09;98229.69;;;29.71;44.93
57610;BME280;43435;46.186;9.024;2023-07-31T12:21:35;98225.69;;;29.68;44.38
57610;BME280;43435;46.186;9.024;2023-07-31T12:24:00;98229.16;;;29.77;44.74
57610;BME280;43435;46.186;9.024;2023-07-31T12:26:33;98228.69;;;29.75;44.33
57610;BME280;43435;46.186;9.024;2023-07-31T12:28:58;98221.78;;;29.90;44.10
57610;BME280;43435;46.186;9.024;2023-07-31T12:31:23;98217.41;;;29.89;44.66
57610;BME280;43435;46.186;9.024;2023-07-31T12:33:52;98217.75;;;29.88;44.83
57610;BME280;43435;46.186;9.024;2023-07-31T12:36:21;98207.81;;;30.41;41.78
57610;BME280;43435;46.186;9.024;2023-07-31T12:38:46;98205.09;;;30.65;41.13
57610;BME280;43435;46.186;9.024;2023-07-31T12:41:11;98207.28;;;30.47;42.71
57610;BME280;43435;46.186;9.024;2023-07-31T12:43:37;98203.59;;;30.55;40.99
57610;BME280;43435;46.186;9.024;2023-07-31T12:46:03;98201.00;;;30.71;40.60
57610;BME280;43435;46.186;9.024;2023-07-31T12:48:29;98196.38;;;30.51;40.28
57610;BME280;43435;46.186;9.024;2023-07-31T12:50:54;98195.59;;;30.50;39.60
57610;BME280;43435;46.186;9.024;2023-07-31T12:53:19;98185.78;;;30.16;41.44
57610;BME280;43435;46.186;9.024;2023-07-31T12:55:45;98182.84;;;30.33;40.51
57610;BME280;43435;46.186;9.024;2023-07-31T12:58:10;98181.72;;;30.35;40.82
57610;BME280;43435;46.186;9.024;2023-07-31T13:00:35;98186.50;;;30.38;41.30
57610;BME280;43435;46.186;9.024;2023-07-31T13:03:01;98182.34;;;30.19;41.43
57610;BME280;43435;46.186;9.024;2023-07-31T13:05:26;98175.03;;;30.23;42.20
57610;BME280;43435;46.186;9.024;2023-07-31T13:07:51;98171.06;;;30.45;41.28
57610;BME280;43435;46.186;9.024;2023-07-31T13:10:17;98164.06;;;30.48;41.00
57610;BME280;43435;46.186;9.024;2023-07-31T13:12:42;98165.88;;;30.44;41.14
57610;BME280;43435;46.186;9.024;2023-07-31T13:15:07;98161.97;;;30.45;41.40
57610;BME280;43435;46.186;9.024;2023-07-31T13:17:32;98157.19;;;30.54;41.90
57610;BME280;43435;46.186;9.024;2023-07-31T13:19:58;98160.63;;;30.63;41.61
57610;BME280;43435;46.186;9.024;2023-07-31T13:22:23;98157.09;;;30.75;40.60
57610;BME280;43435;46.186;9.024;2023-07-31T13:24:48;98160.41;;;30.80;41.69
57610;BME280;43435;46.186;9.024;2023-07-31T13:27:14;98163.38;;;31.00;40.42
57610;BME280;43435;46.186;9.024;2023-07-31T13:29:43;98150.75;;;30.99;40.43
57610;BME280;43435;46.186;9.024;2023-07-31T13:32:08;98150.66;;;30.95;40.03
57610;BME280;43435;46.186;9.024;2023-07-31T13:34:33;98149.16;;;30.86;40.59
57610;BME280;43435;46.186;9.024;2023-07-31T13:36:58;98143.34;;;30.75;41.39
57610;BME280;43435;46.186;9.024;2023-07-31T13:39:25;98154.78;;;30.89;40.54
57610;BME280;43435;46.186;9.024;2023-07-31T13:41:50;98143.00;;;30.76;42.18
57610;BME280;43435;46.186;9.024;2023-07-31T13:44:15;98146.53;;;30.89;40.90
57610;BME280;43435;46.186;9.024;2023-07-31T13:46:40;98139.28;;;31.09;39.92
57610;BME280;43435;46.186;9.024;2023-07-31T13:49:05;98140.69;;;30.91;41.61
57610;BME280;43435;46.186;9.024;2023-07-31T13:51:31;98132.78;;;31.29;40.66
57610;BME280;43435;46.186;9.024;2023-07-31T13:53:56;98124.94;;;31.44;39.52
57610;BME280;43435;46.186;9.024;2023-07-31T13:56:21;98126.31;;;31.50;40.08
57610;BME280;43435;46.186;9.024;2023-07-31T13:58:46;98123.09;;;31.48;39.15
57610;BME280;43435;46.186;9.024;2023-07-31T14:01:11;98113.41;;;31.38;38.73
57610;BME280;43435;46.186;9.024;2023-07-31T14:03:36;98126.56;;;29.52;44.80
57610;BME280;43435;46.186;9.024;2023-07-31T14:06:02;98116.59;;;30.63;42.24
57610;BME280;43435;46.186;9.024;2023-07-31T14:08:27;98107.38;;;31.08;40.16
57610;BME280;43435;46.186;9.024;2023-07-31T14:10:52;98112.53;;;31.10;40.66
57610;BME280;43435;46.186;9.024;2023-07-31T14:13:17;98116.56;;;31.00;40.50
57610;BME280;43435;46.186;9.024;2023-07-31T14:15:43;98125.72;;;31.04;40.96
57610;BME280;43435;46.186;9.024;2023-07-31T15:25:45;98091.31;;;32.26;38.96
57610;BME280;43435;46.186;9.024;2023-07-31T15:28:10;98085.16;;;32.33;38.69
57610;BME280;43435;46.186;9.024;2023-07-31T15:30:36;98077.09;;;32.08;39.31
57610;BME280;43435;46.186;9.024;2023-07-31T15:33:02;98088.09;;;31.92;40.03
57610;BME280;43435;46.186;9.024;2023-07-31T15:35:27;98075.22;;;32.12;39.55
57610;BME280;43435;46.186;9.024;2023-07-31T15:37:52;98081.34;;;32.37;38.63
57610;BME280;43435;46.186;9.024;2023-07-31T15:40:18;98073.22;;;32.60;37.76
57610;BME280;43435;46.186;9.024;2023-07-31T15:42:43;98075.13;;;32.76;38.31
57610;BME280;43435;46.186;9.024;2023-07-31T15:45:08;98067.78;;;32.64;37.92
57610;BME280;43435;46.186;9.024;2023-07-31T15:47:35;98058.66;;;32.79;37.77
57610;BME280;43435;46.186;9.024;2023-07-31T15:50:00;98056.28;;;32.78;37.18
57610;BME280;43435;46.186;9.024;2023-07-31T15:52:25;98050.59;;;32.70;37.56
57610;BME280;43435;46.186;9.024;2023-07-31T15:54:51;98060.31;;;32.84;37.53
57610;BME280;43435;46.186;9.024;2023-07-31T15:57:16;98049.56;;;32.59;37.86
57610;BME280;43435;46.186;9.024;2023-07-31T15:59:41;98047.03;;;32.89;36.72
57610;BME280;43435;46.186;9.024;2023-07-31T16:02:06;98042.72;;;33.08;35.71
57610;BME280;43435;46.186;9.024;2023-07-31T16:04:33;98042.00;;;32.76;37.12
57610;BME280;43435;46.186;9.024;2023-07-31T16:06:58;98043.44;;;32.69;37.73
57610;BME280;43435;46.186;9.024;2023-07-31T16:09:23;98033.91;;;33.02;36.86
57610;BME280;43435;46.186;9.024;2023-07-31T16:11:48;98039.78;;;32.81;36.72
57610;BME280;43435;46.186;9.024;2023-07-31T16:14:14;98043.75;;;33.00;36.34
57610;BME280;43435;46.186;9.024;2023-07-31T16:16:39;98035.84;;;32.47;36.73
57610;BME280;43435;46.186;9.024;2023-07-31T16:19:04;98040.25;;;32.48;37.55
57610;BME280;43435;46.186;9.024;2023-07-31T16:21:29;98033.09;;;32.82;36.59
57610;BME280;43435;46.186;9.024;2023-07-31T16:23:54;98034.56;;;32.95;36.44
57610;BME280;43435;46.186;9.024;2023-07-31T16:26:20;98037.78;;;32.62;37.35
57610;BME280;43435;46.186;9.024;2023-07-31T16:28:45;98044.84;;;32.44;38.44
57610;BME280;43435;46.186;9.024;2023-07-31T16:31:10;98043.09;;;32.71;37.26
57610;BME280;43435;46.186;9.024;2023-07-31T16:33:35;98041.75;;;32.45;38.84
57610;BME280;43435;46.186;9.024;2023-07-31T16:36:00;98040.66;;;32.85;37.52
57610;BME280;43435;46.186;9.024;2023-07-31T16:38:26;98034.47;;;32.92;37.32
57610;BME280;43435;46.186;9.024;2023-07-31T16:40:51;98041.72;;;32.97;37.50
57610;BME280;43435;46.186;9.024;2023-07-31T16:43:16;98041.28;;;32.79;37.92
57610;BME280;43435;46.186;9.024;2023-07-31T16:45:41;98046.69;;;32.40;39.42
57610;BME280;43435;46.186;9.024;2023-07-31T16:48:06;98038.59;;;32.63;38.12
57610;BME280;43435;46.186;9.024;2023-07-31T16:50:32;98042.03;;;32.40;38.22
57610;BME280;43435;46.186;9.024;2023-07-31T16:52:57;98043.72;;;32.13;39.60
57610;BME280;43435;46.186;9.024;2023-07-31T16:55:22;98043.19;;;32.23;38.74
57610;BME280;43435;46.186;9.024;2023-07-31T16:57:47;98039.63;;;32.07;39.27
57610;BME280;43435;46.186;9.024;2023-07-31T17:00:12;98042.47;;;31.95;39.79
57610;BME280;43435;46.186;9.024;2023-07-31T17:02:38;98038.63;;;31.84;40.06
57610;BME280;43435;46.186;9.024;2023-07-31T17:05:03;98033.91;;;31.68;40.39
57610;BME280;43435;46.186;9.024;2023-07-31T17:07:28;98039.13;;;31.58;41.35
57610;BME280;43435;46.186;9.024;2023-07-31T17:09:54;98041.56;;;31.75;40.75
57610;BME280;43435;46.186;9.024;2023-07-31T17:12:20;98043.19;;;31.92;40.92
57610;BME280;43435;46.186;9.024;2023-07-31T17:14:45;98044.94;;;31.84;41.23
57610;BME280;43435;46.186;9.024;2023-07-31T17:17:10;98041.84;;;32.17;39.85
57610;BME280;43435;46.186;9.024;2023-07-31T17:19:35;98038.25;;;32.33;39.75
57610;BME280;43435;46.186;9.024;2023-07-31T17:22:01;98041.59;;;32.22;40.29
57610;BME280;43435;46.186;9.024;2023-07-31T17:24:26;98052.09;;;32.01;40.56
57610;BME280;43435;46.186;9.024;2023-07-31T17:26:51;98046.56;;;31.85;40.73
57610;BME280;43435;46.186;9.024;2023-07-31T17:29:17;98049.97;;;31.66;41.39
57610;BME280;43435;46.186;9.024;2023-07-31T17:31:42;98047.63;;;31.37;42.28
57610;BME280;43435;46.186;9.024;2023-07-31T17:34:07;98058.63;;;31.37;42.29
57610;BME280;43435;46.186;9.024;2023-07-31T17:36:32;98065.06;;;31.28;42.04
57610;BME280;43435;46.186;9.024;2023-07-31T17:38:58;98060.84;;;30.91;43.01
57610;BME280;43435;46.186;9.024;2023-07-31T17:41:24;98057.09;;;30.59;44.19
57610;BME280;43435;46.186;9.024;2023-07-31T17:43:51;98060.94;;;30.42;45.00
57610;BME280;43435;46.186;9.024;2023-07-31T17:46:16;98061.59;;;30.26;45.53
57610;BME280;43435;46.186;9.024;2023-07-31T17:48:41;98063.56;;;30.26;45.55
57610;BME280;43435;46.186;9.024;2023-07-31T17:51:10;98064.69;;;30.13;45.91
57610;BME280;43435;46.186;9.024;2023-07-31T17:53:35;98069.97;;;30.18;45.45
57610;BME280;43435;46.186;9.024;2023-07-31T17:56:00;98075.53;;;29.97;45.57
57610;BME280;43435;46.186;9.024;2023-07-31T17:58:25;98075.50;;;29.72;46.24
57610;BME280;43435;46.186;9.024;2023-07-31T18:00:51;98086.50;;;29.72;46.67
57610;BME280;43435;46.186;9.024;2023-07-31T18:03:16;98085.63;;;29.59;47.67
57610;BME280;43435;46.186;9.024;2023-07-31T18:05:41;98091.94;;;29.60;49.23
57610;BME280;43435;46.186;9.024;2023-07-31T18:08:06;98083.16;;;29.46;49.38
57610;BME280;43435;46.186;9.024;2023-07-31T18:10:32;98095.78;;;29.26;50.32
57610;BME280;43435;46.186;9.024;2023-07-31T18:12:58;98091.97;;;29.18;51.47
57610;BME280;43435;46.186;9.024;2023-07-31T18:15:24;98091.00;;;29.02;51.90
57610;BME280;43435;46.186;9.024;2023-07-31T18:17:49;98092.69;;;28.85;52.61
57610;BME280;43435;46.186;9.024;2023-07-31T18:20:14;98094.69;;;28.76;52.94
57610;BME280;43435;46.186;9.024;2023-07-31T18:22:40;98112.41;;;28.58;53.27
57610;BME280;43435;46.186;9.024;2023-07-31T18:25:05;98110.31;;;28.55;53.14
57610;BME280;43435;46.186;9.024;2023-07-31T18:27:31;98108.72;;;28.54;53.01
57610;BME280;43435;46.186;9.024;2023-07-31T18:29:56;98117.31;;;28.44;53.55
57610;BME280;43435;46.186;9.024;2023-07-31T18:32:21;98117.47;;;28.47;53.56
57610;BME280;43435;46.186;9.024;2023-07-31T18:34:46;98119.63;;;28.24;53.89
57610;BME280;43435;46.186;9.024;2023-07-31T18:37:11;98121.91;;;28.22;53.77
57610;BME280;43435;46.186;9.024;2023-07-31T18:39:37;98129.53;;;28.08;54.49
57610;BME280;43435;46.186;9.024;2023-07-31T18:42:02;98127.13;;;27.98;54.30
57610;BME280;43435;46.186;9.024;2023-07-31T18:44:27;98124.44;;;27.89;54.29
57610;BME280;43435;46.186;9.024;2023-07-31T18:46:53;98126.81;;;27.90;55.38
57610;BME280;43435;46.186;9.024;2023-07-31T18:49:18;98126.38;;;27.80;56.45
57610;BME280;43435;46.186;9.024;2023-07-31T18:51:43;98118.47;;;27.61;57.32
57610;BME280;43435;46.186;9.024;2023-07-31T18:54:08;98131.06;;;27.44;57.00
57610;BME280;43435;46.186;9.024;2023-07-31T18:56:33;98121.88;;;26.97;59.28
57610;BME280;43435;46.186;9.024;2023-07-31T18:58:59;98130.53;;;26.82;59.28
57610;BME280;43435;46.186;9.024;2023-07-31T19:01:25;98124.09;;;26.86;59.64
57610;BME280;43435;46.186;9.024;2023-07-31T19:03:51;98126.66;;;26.74;60.03
57610;BME280;43435;46.186;9.024;2023-07-31T19:06:16;98121.16;;;26.65;60.33
57610;BME280;43435;46.186;9.024;2023-07-31T19:08:41;98123.06;;;26.56;60.22
57610;BME280;43435;46.186;9.024;2023-07-31T19:11:07;98120.50;;;26.60;60.12
57610;BME280;43435;46.186;9.024;2023-07-31T19:13:32;98121.31;;;26.52;60.43
57610;BME280;43435;46.186;9.024;2023-07-31T19:15:57;98121.94;;;26.57;60.24
57610;BME280;43435;46.186;9.024;2023-07-31T19:18:23;98107.66;;;26.69;59.95
57610;BME280;43435;46.186;9.024;2023-07-31T19:20:49;98118.13;;;26.67;59.96
57610;BME280;43435;46.186;9.024;2023-07-31T19:23:14;98118.41;;;26.65;60.12
57610;BME280;43435;46.186;9.024;2023-07-31T19:25:39;98116.81;;;26.64;59.35
57610;BME280;43435;46.186;9.024;2023-07-31T19:28:05;98118.13;;;26.67;59.07
57610;BME280;43435;46.186;9.024;2023-07-31T19:30:30;98116.50;;;26.66;59.18
57610;BME280;43435;46.186;9.024;2023-07-31T19:32:56;98123.25;;;26.60;59.82
57610;BME280;43435;46.186;9.024;2023-07-31T19:35:24;98128.22;;;26.58;59.60
57610;BME280;43435;46.186;9.024;2023-07-31T19:37:50;98129.97;;;26.54;59.75
57610;BME280;43435;46.186;9.024;2023-07-31T19:40:15;98127.56;;;26.52;60.25
57610;BME280;43435;46.186;9.024;2023-07-31T19:42:40;98138.94;;;26.45;60.84
57610;BME280;43435;46.186;9.024;2023-07-31T19:45:06;98136.97;;;26.37;61.13
57610;BME280;43435;46.186;9.024;2023-07-31T19:47:31;98130.88;;;26.40;60.72
57610;BME280;43435;46.186;9.024;2023-07-31T19:49:56;98135.84;;;26.38;60.60
57610;BME280;43435;46.186;9.024;2023-07-31T19:52:22;98141.81;;;26.40;60.30
57610;BME280;43435;46.186;9.024;2023-07-31T19:54:47;98131.50;;;26.37;60.23
57610;BME280;43435;46.186;9.024;2023-07-31T19:57:12;98123.31;;;26.37;59.99
57610;BME280;43435;46.186;9.024;2023-07-31T19:59:37;98121.69;;;26.36;59.96
57610;BME280;43435;46.186;9.024;2023-07-31T20:02:03;98119.44;;;26.38;60.40
57610;BME280;43435;46.186;9.024;2023-07-31T20:04:28;98118.03;;;26.41;59.82
57610;BME280;43435;46.186;9.024;2023-07-31T20:06:53;98117.22;;;26.40;59.91
57610;BME280;43435;46.186;9.024;2023-07-31T20:09:19;98119.94;;;26.40;60.02
57610;BME280;43435;46.186;9.024;2023-07-31T20:11:44;98122.69;;;26.40;59.62
57610;BME280;43435;46.186;9.024;2023-07-31T20:14:09;98122.03;;;26.43;59.74
57610;BME280;43435;46.186;9.024;2023-07-31T20:16:34;98122.34;;;26.42;59.70
57610;BME280;43435;46.186;9.024;2023-07-31T20:19:03;98121.56;;;26.41;59.88
57610;BME280;43435;46.186;9.024;2023-07-31T20:21:28;98119.28;;;26.43;59.70
57610;BME280;43435;46.186;9.024;2023-07-31T20:23:53;98121.56;;;26.41;59.88
57610;BME280;43435;46.186;9.024;2023-07-31T20:26:19;98121.56;;;26.41;59.94
57610;BME280;43435;46.186;9.024;2023-07-31T20:28:44;98122.69;;;26.40;59.65
57610;BME280;43435;46.186;9.024;2023-07-31T20:31:11;98128.16;;;26.40;59.81
57610;BME280;43435;46.186;9.024;2023-07-31T20:33:36;98118.94;;;26.36;59.94
57610;BME280;43435;46.186;9.024;2023-07-31T20:36:01;98108.19;;;26.40;59.97
57610;BME280;43435;46.186;9.024;2023-07-31T20:38:29;98108.53;;;26.38;59.64
57610;BME280;43435;46.186;9.024;2023-07-31T20:40:54;98108.53;;;26.38;59.79
57610;BME280;43435;46.186;9.024;2023-07-31T20:43:20;98114.47;;;26.40;59.63
57610;BME280;43435;46.186;9.024;2023-07-31T20:45:45;98119.13;;;26.40;60.34
57610;BME280;43435;46.186;9.024;2023-07-31T20:48:10;98117.22;;;26.40;59.89
57610;BME280;43435;46.186;9.024;2023-07-31T20:50:38;98122.19;;;26.38;59.83
57610;BME280;43435;46.186;9.024;2023-07-31T20:53:03;98125.25;;;26.37;59.74
57610;BME280;43435;46.186;9.024;2023-07-31T20:55:28;98120.59;;;26.37;59.59
57610;BME280;43435;46.186;9.024;2023-07-31T20:57:53;98113.81;;;26.35;59.76
57610;BME280;43435;46.186;9.024;2023-07-31T21:00:19;98110.56;;;26.33;59.71
57610;BME280;43435;46.186;9.024;2023-07-31T21:02:44;98116.22;;;26.36;59.65